LFSB/MLH METAR and TAF weather

Enter ICAO airport designator
Station Type Date Time Source
LFSB METAR 2023/06/03 23:30 UTC NOAA

LFSB 032330Z AUTO 32005KT CAVOK 16/11 Q1016 NOSIG


Station Type Date Time Source
LFSB Decoded METAR 2023/06/03 23:30 UTC NOAA

Bale-Mulhouse, France (LFSB) 47-36N 007-31E 271M
Jun 03, 2023 - 07:30 PM EDT / 2023.06.03 2330 UTC
Wind: from the NW (320 degrees) at 6 MPH (5 KT):0
Visibility: greater than 7 mile(s):0
Temperature: 60 F (16 C)
Dew Point: 51 F (11 C)
Relative Humidity: 72%
Pressure (altimeter): 30.00 in. Hg (1016 hPa)
ob: LFSB 032330Z AUTO 32005KT CAVOK 16/11 Q1016 NOSIG
cycle: 23

Station Type Date Time Source
LFSB TAF 2023/06/03 18:21 UTC NOAA

TAF LFSB 031700Z 0318/0418 36010KT CAVOK
TEMPO 0318/0321 FEW070CB
BECMG 0321/0324 30005KT PROB30
TEMPO 0405/0409 -SHRA FEW065CB BKN100
BECMG 0409/0412 36010KT
TEMPO 0412/0418 FEW055CB PROB30
TEMPO 0414/0418 VRB15G25KT 2500 TSRA SCT050CB

Example: see airport list